sensor_id;sensor_type;location;lat;lon;timestamp;pressure;altitude;pressure_sealevel;temperature;humidity
32181;BME280;19172;51.504;3.894;2022-10-16T00:01:43;100855.03;;;19.34;87.34
32181;BME280;19172;51.504;3.894;2022-10-16T00:04:11;100827.25;;;19.36;95.03
32181;BME280;19172;51.504;3.894;2022-10-16T00:06:39;100800.78;;;19.78;99.10
32181;BME280;19172;51.504;3.894;2022-10-16T00:09:07;100806.00;;;20.06;99.31
32181;BME280;19172;51.504;3.894;2022-10-16T00:11:38;100806.94;;;19.80;97.87
32181;BME280;19172;51.504;3.894;2022-10-16T00:14:11;100802.44;;;20.05;97.50
32181;BME280;19172;51.504;3.894;2022-10-16T00:16:39;100811.91;;;20.16;98.20
32181;BME280;19172;51.504;3.894;2022-10-16T00:19:09;100808.38;;;20.14;97.42
32181;BME280;19172;51.504;3.894;2022-10-16T00:21:37;100804.09;;;20.33;96.61
32181;BME280;19172;51.504;3.894;2022-10-16T00:24:07;100803.97;;;20.36;95.86
32181;BME280;19172;51.504;3.894;2022-10-16T00:26:37;100806.25;;;20.46;94.90
32181;BME280;19172;51.504;3.894;2022-10-16T00:29:06;100811.41;;;20.52;94.47
32181;BME280;19172;51.504;3.894;2022-10-16T00:31:34;100807.66;;;20.56;93.83
32181;BME280;19172;51.504;3.894;2022-10-16T00:34:03;100820.16;;;20.34;93.23
32181;BME280;19172;51.504;3.894;2022-10-16T00:36:31;100810.47;;;20.30;93.71
32181;BME280;19172;51.504;3.894;2022-10-16T00:38:59;100814.69;;;20.37;93.47
32181;BME280;19172;51.504;3.894;2022-10-16T00:41:33;100807.91;;;20.27;94.05
32181;BME280;19172;51.504;3.894;2022-10-16T00:44:04;100809.94;;;20.44;93.58
32181;BME280;19172;51.504;3.894;2022-10-16T00:46:51;100811.75;;;20.43;93.32
32181;BME280;19172;51.504;3.894;2022-10-16T00:49:20;100804.69;;;20.41;92.41
32181;BME280;19172;51.504;3.894;2022-10-16T00:51:53;100805.75;;;20.60;92.27
32181;BME280;19172;51.504;3.894;2022-10-16T00:54:27;100806.53;;;20.62;91.19
32181;BME280;19172;51.504;3.894;2022-10-16T00:57:03;100801.94;;;20.66;90.36
32181;BME280;19172;51.504;3.894;2022-10-16T00:59:39;100809.81;;;20.70;89.85
32181;BME280;19172;51.504;3.894;2022-10-16T01:02:10;100800.91;;;20.46;89.29
32181;BME280;19172;51.504;3.894;2022-10-16T01:04:42;100801.53;;;20.53;90.30
32181;BME280;19172;51.504;3.894;2022-10-16T01:07:41;100804.88;;;20.36;90.14
32181;BME280;19172;51.504;3.894;2022-10-16T01:13:11;100794.06;;;20.61;91.18
32181;BME280;19172;51.504;3.894;2022-10-16T01:16:06;100798.22;;;20.68;90.81
32181;BME280;19172;51.504;3.894;2022-10-16T01:18:45;100811.66;;;20.68;90.70
32181;BME280;19172;51.504;3.894;2022-10-16T01:21:24;100810.41;;;20.55;91.14
32181;BME280;19172;51.504;3.894;2022-10-16T01:32:48;100800.34;;;20.38;92.63
32181;BME280;19172;51.504;3.894;2022-10-16T01:40:27;100803.47;;;20.26;96.38
32181;BME280;19172;51.504;3.894;2022-10-16T01:43:02;100808.69;;;20.06;96.15
32181;BME280;19172;51.504;3.894;2022-10-16T01:45:33;100809.06;;;19.95;97.93
32181;BME280;19172;51.504;3.894;2022-10-16T01:48:04;100817.63;;;20.06;98.34
32181;BME280;19172;51.504;3.894;2022-10-16T01:50:38;100819.06;;;19.41;98.54
32181;BME280;19172;51.504;3.894;2022-10-16T01:53:12;100810.34;;;19.85;100.00
32181;BME280;19172;51.504;3.894;2022-10-16T01:55:45;100807.84;;;19.81;100.00
32181;BME280;19172;51.504;3.894;2022-10-16T01:58:14;100802.13;;;19.90;100.00
32181;BME280;19172;51.504;3.894;2022-10-16T02:00:45;100810.19;;;19.90;100.00
32181;BME280;19172;51.504;3.894;2022-10-16T02:03:18;100805.78;;;20.12;100.00
32181;BME280;19172;51.504;3.894;2022-10-16T02:05:51;100811.78;;;20.19;100.00
32181;BME280;19172;51.504;3.894;2022-10-16T02:08:24;100803.47;;;20.26;98.96
32181;BME280;19172;51.504;3.894;2022-10-16T02:10:54;100813.44;;;20.46;98.42
32181;BME280;19172;51.504;3.894;2022-10-16T02:13:30;100821.53;;;20.21;97.77
32181;BME280;19172;51.504;3.894;2022-10-16T02:16:00;100820.09;;;20.36;98.43
32181;BME280;19172;51.504;3.894;2022-10-16T02:18:29;100823.91;;;20.05;99.26
32181;BME280;19172;51.504;3.894;2022-10-16T02:21:07;100833.28;;;20.19;100.00
32181;BME280;19172;51.504;3.894;2022-10-16T02:24:02;100828.88;;;19.91;100.00
32181;BME280;19172;51.504;3.894;2022-10-16T02:26:39;100829.84;;;20.14;100.00
32181;BME280;19172;51.504;3.894;2022-10-16T02:29:13;100825.28;;;19.43;100.00
32181;BME280;19172;51.504;3.894;2022-10-16T02:31:48;100840.63;;;19.64;100.00
32181;BME280;19172;51.504;3.894;2022-10-16T02:34:20;100822.94;;;19.83;100.00
32181;BME280;19172;51.504;3.894;2022-10-16T02:36:50;100826.41;;;19.87;100.00
32181;BME280;19172;51.504;3.894;2022-10-16T02:39:20;100818.38;;;19.34;100.00
32181;BME280;19172;51.504;3.894;2022-10-16T02:41:48;100828.81;;;19.43;100.00
32181;BME280;19172;51.504;3.894;2022-10-16T02:44:16;100828.47;;;19.79;100.00
32181;BME280;19172;51.504;3.894;2022-10-16T02:46:44;100837.53;;;19.50;100.00
32181;BME280;19172;51.504;3.894;2022-10-16T02:49:11;100830.69;;;19.66;100.00
32181;BME280;19172;51.504;3.894;2022-10-16T02:51:39;100826.44;;;19.61;100.00
32181;BME280;19172;51.504;3.894;2022-10-16T02:54:07;100834.22;;;19.93;100.00
32181;BME280;19172;51.504;3.894;2022-10-16T02:56:34;100831.34;;;19.48;100.00
32181;BME280;19172;51.504;3.894;2022-10-16T02:59:02;100832.31;;;19.72;100.00
32181;BME280;19172;51.504;3.894;2022-10-16T03:01:30;100841.72;;;19.83;100.00
32181;BME280;19172;51.504;3.894;2022-10-16T03:03:58;100842.75;;;20.04;100.00
32181;BME280;19172;51.504;3.894;2022-10-16T03:06:25;100852.19;;;19.12;100.00
32181;BME280;19172;51.504;3.894;2022-10-16T03:08:53;100844.19;;;19.37;100.00
32181;BME280;19172;51.504;3.894;2022-10-16T03:11:21;100846.66;;;19.71;100.00
32181;BME280;19172;51.504;3.894;2022-10-16T03:13:48;100844.09;;;19.41;100.00
32181;BME280;19172;51.504;3.894;2022-10-16T03:16:16;100857.88;;;19.29;100.00
32181;BME280;19172;51.504;3.894;2022-10-16T03:18:48;100849.47;;;19.14;100.00
32181;BME280;19172;51.504;3.894;2022-10-16T03:21:16;100861.50;;;19.54;100.00
32181;BME280;19172;51.504;3.894;2022-10-16T03:23:44;100852.16;;;19.66;100.00
32181;BME280;19172;51.504;3.894;2022-10-16T03:26:12;100850.69;;;19.58;100.00
32181;BME280;19172;51.504;3.894;2022-10-16T03:28:40;100858.59;;;19.62;100.00
32181;BME280;19172;51.504;3.894;2022-10-16T03:31:08;100861.75;;;19.47;100.00
32181;BME280;19172;51.504;3.894;2022-10-16T03:33:35;100864.09;;;19.58;100.00
32181;BME280;19172;51.504;3.894;2022-10-16T03:36:04;100866.31;;;19.45;100.00
32181;BME280;19172;51.504;3.894;2022-10-16T03:38:31;100869.31;;;19.62;100.00
32181;BME280;19172;51.504;3.894;2022-10-16T03:40:59;100871.16;;;19.60;100.00
32181;BME280;19172;51.504;3.894;2022-10-16T03:43:27;100875.97;;;19.75;100.00
32181;BME280;19172;51.504;3.894;2022-10-16T03:45:55;100872.00;;;19.87;100.00
32181;BME280;19172;51.504;3.894;2022-10-16T03:48:22;100874.41;;;19.43;100.00
32181;BME280;19172;51.504;3.894;2022-10-16T03:50:50;100873.50;;;19.69;100.00
32181;BME280;19172;51.504;3.894;2022-10-16T03:53:19;100863.84;;;19.90;100.00
32181;BME280;19172;51.504;3.894;2022-10-16T03:55:46;100862.28;;;19.58;100.00
32181;BME280;19172;51.504;3.894;2022-10-16T03:58:15;100871.47;;;19.51;100.00
32181;BME280;19172;51.504;3.894;2022-10-16T04:00:44;100864.06;;;19.31;100.00
32181;BME280;19172;51.504;3.894;2022-10-16T04:03:12;100872.19;;;19.28;100.00
32181;BME280;19172;51.504;3.894;2022-10-16T04:05:40;100865.75;;;19.34;100.00
32181;BME280;19172;51.504;3.894;2022-10-16T04:08:08;100869.69;;;19.50;100.00
32181;BME280;19172;51.504;3.894;2022-10-16T04:10:35;100884.25;;;19.69;100.00
32181;BME280;19172;51.504;3.894;2022-10-16T04:13:03;100881.78;;;19.63;100.00
32181;BME280;19172;51.504;3.894;2022-10-16T04:15:31;100881.91;;;19.85;100.00
32181;BME280;19172;51.504;3.894;2022-10-16T04:17:59;100892.47;;;19.09;100.00
32181;BME280;19172;51.504;3.894;2022-10-16T04:20:27;100887.25;;;19.32;100.00
32181;BME280;19172;51.504;3.894;2022-10-16T04:22:55;100888.38;;;19.53;100.00
32181;BME280;19172;51.504;3.894;2022-10-16T04:25:23;100894.19;;;19.39;100.00
32181;BME280;19172;51.504;3.894;2022-10-16T04:27:53;100896.31;;;19.28;100.00
32181;BME280;19172;51.504;3.894;2022-10-16T04:30:22;100911.09;;;19.43;100.00
32181;BME280;19172;51.504;3.894;2022-10-16T04:32:51;100909.91;;;19.24;100.00
32181;BME280;19172;51.504;3.894;2022-10-16T04:35:20;100913.09;;;18.79;100.00
32181;BME280;19172;51.504;3.894;2022-10-16T04:37:48;100923.72;;;18.52;100.00
32181;BME280;19172;51.504;3.894;2022-10-16T04:40:16;100924.13;;;18.98;100.00
32181;BME280;19172;51.504;3.894;2022-10-16T04:42:44;100934.06;;;18.64;100.00
32181;BME280;19172;51.504;3.894;2022-10-16T04:45:12;100933.09;;;18.95;100.00
32181;BME280;19172;51.504;3.894;2022-10-16T04:47:41;100933.25;;;18.62;100.00
32181;BME280;19172;51.504;3.894;2022-10-16T04:50:09;100938.94;;;18.48;100.00
32181;BME280;19172;51.504;3.894;2022-10-16T04:52:36;100944.28;;;19.10;100.00
32181;BME280;19172;51.504;3.894;2022-10-16T04:55:05;100953.31;;;18.78;100.00
32181;BME280;19172;51.504;3.894;2022-10-16T04:57:33;100951.09;;;18.92;100.00
32181;BME280;19172;51.504;3.894;2022-10-16T05:00:00;100950.84;;;18.70;100.00
32181;BME280;19172;51.504;3.894;2022-10-16T05:02:28;100959.88;;;18.97;100.00
32181;BME280;19172;51.504;3.894;2022-10-16T05:04:56;100970.56;;;18.68;100.00
32181;BME280;19172;51.504;3.894;2022-10-16T05:07:24;100970.88;;;19.17;100.00
32181;BME280;19172;51.504;3.894;2022-10-16T05:09:52;100974.41;;;19.18;100.00
32181;BME280;19172;51.504;3.894;2022-10-16T05:12:21;100979.13;;;19.10;100.00
32181;BME280;19172;51.504;3.894;2022-10-16T05:14:49;100979.69;;;18.91;100.00
32181;BME280;19172;51.504;3.894;2022-10-16T05:17:16;100977.34;;;19.10;100.00
32181;BME280;19172;51.504;3.894;2022-10-16T05:19:44;100994.03;;;18.60;100.00
32181;BME280;19172;51.504;3.894;2022-10-16T05:22:12;100990.06;;;19.02;100.00
32181;BME280;19172;51.504;3.894;2022-10-16T05:24:40;100988.00;;;19.12;100.00
32181;BME280;19172;51.504;3.894;2022-10-16T05:27:07;101001.03;;;18.94;100.00
32181;BME280;19172;51.504;3.894;2022-10-16T05:29:35;101009.00;;;18.96;100.00
32181;BME280;19172;51.504;3.894;2022-10-16T05:32:03;100997.81;;;19.13;100.00
32181;BME280;19172;51.504;3.894;2022-10-16T05:34:31;100997.31;;;19.28;100.00
32181;BME280;19172;51.504;3.894;2022-10-16T05:36:58;100996.38;;;19.30;100.00
32181;BME280;19172;51.504;3.894;2022-10-16T05:39:26;101016.34;;;18.59;100.00
32181;BME280;19172;51.504;3.894;2022-10-16T05:41:54;101016.94;;;19.00;100.00
32181;BME280;19172;51.504;3.894;2022-10-16T05:44:22;101025.53;;;19.12;100.00
32181;BME280;19172;51.504;3.894;2022-10-16T05:46:49;101037.16;;;19.41;100.00
32181;BME280;19172;51.504;3.894;2022-10-16T05:49:17;101038.44;;;18.67;100.00
32181;BME280;19172;51.504;3.894;2022-10-16T05:51:45;101036.13;;;19.16;100.00
32181;BME280;19172;51.504;3.894;2022-10-16T05:54:12;101031.56;;;19.18;100.00
32181;BME280;19172;51.504;3.894;2022-10-16T05:56:40;101033.91;;;19.30;100.00
32181;BME280;19172;51.504;3.894;2022-10-16T05:59:08;101043.28;;;19.16;100.00
32181;BME280;19172;51.504;3.894;2022-10-16T06:01:36;101044.69;;;19.27;100.00
32181;BME280;19172;51.504;3.894;2022-10-16T06:04:04;101047.78;;;19.44;100.00
32181;BME280;19172;51.504;3.894;2022-10-16T06:06:31;101047.25;;;19.32;100.00
32181;BME280;19172;51.504;3.894;2022-10-16T06:08:59;101037.66;;;19.54;100.00
32181;BME280;19172;51.504;3.894;2022-10-16T06:11:29;101039.03;;;19.38;100.00
32181;BME280;19172;51.504;3.894;2022-10-16T06:14:01;101039.94;;;19.37;100.00
32181;BME280;19172;51.504;3.894;2022-10-16T06:16:30;101050.94;;;19.28;100.00
32181;BME280;19172;51.504;3.894;2022-10-16T06:18:57;101043.34;;;19.14;100.00
32181;BME280;19172;51.504;3.894;2022-10-16T06:21:28;101061.44;;;19.06;100.00
32181;BME280;19172;51.504;3.894;2022-10-16T06:23:57;101056.88;;;19.39;100.00
32181;BME280;19172;51.504;3.894;2022-10-16T06:26:28;101052.19;;;19.47;100.00
32181;BME280;19172;51.504;3.894;2022-10-16T06:28:58;101062.81;;;19.21;100.00
32181;BME280;19172;51.504;3.894;2022-10-16T06:31:27;101063.56;;;18.63;100.00
32181;BME280;19172;51.504;3.894;2022-10-16T06:33:57;101071.47;;;19.30;100.00
32181;BME280;19172;51.504;3.894;2022-10-16T06:36:26;101070.19;;;19.13;100.00
32181;BME280;19172;51.504;3.894;2022-10-16T06:38:54;101082.94;;;19.05;100.00
32181;BME280;19172;51.504;3.894;2022-10-16T06:41:22;101083.13;;;19.28;100.00
32181;BME280;19172;51.504;3.894;2022-10-16T06:43:51;101086.59;;;19.31;100.00
32181;BME280;19172;51.504;3.894;2022-10-16T06:46:22;101089.44;;;19.56;100.00
32181;BME280;19172;51.504;3.894;2022-10-16T06:48:52;101096.19;;;19.69;100.00
32181;BME280;19172;51.504;3.894;2022-10-16T06:51:22;101097.69;;;19.50;100.00
32181;BME280;19172;51.504;3.894;2022-10-16T06:53:53;101102.50;;;19.68;100.00
32181;BME280;19172;51.504;3.894;2022-10-16T06:56:30;101113.88;;;19.76;100.00
32181;BME280;19172;51.504;3.894;2022-10-16T06:58:59;101116.88;;;19.66;100.00
32181;BME280;19172;51.504;3.894;2022-10-16T07:01:28;101124.38;;;19.84;100.00
32181;BME280;19172;51.504;3.894;2022-10-16T07:03:56;101125.28;;;19.53;100.00
32181;BME280;19172;51.504;3.894;2022-10-16T07:06:26;101137.72;;;19.85;100.00
32181;BME280;19172;51.504;3.894;2022-10-16T07:08:55;101147.06;;;20.01;100.00
32181;BME280;19172;51.504;3.894;2022-10-16T07:11:23;101143.09;;;19.85;100.00
32181;BME280;19172;51.504;3.894;2022-10-16T07:13:51;101156.75;;;19.48;100.00
32181;BME280;19172;51.504;3.894;2022-10-16T07:16:24;101162.19;;;20.04;100.00
32181;BME280;19172;51.504;3.894;2022-10-16T07:18:56;101173.63;;;20.11;100.00
32181;BME280;19172;51.504;3.894;2022-10-16T07:21:29;101174.66;;;20.06;100.00
32181;BME280;19172;51.504;3.894;2022-10-16T07:23:59;101180.22;;;20.00;100.00
32181;BME280;19172;51.504;3.894;2022-10-16T07:26:30;101181.22;;;20.26;100.00
32181;BME280;19172;51.504;3.894;2022-10-16T07:28:58;101187.53;;;19.95;100.00
32181;BME280;19172;51.504;3.894;2022-10-16T07:31:27;101188.41;;;20.24;100.00
32181;BME280;19172;51.504;3.894;2022-10-16T07:33:54;101201.56;;;20.33;100.00
32181;BME280;19172;51.504;3.894;2022-10-16T07:36:22;101203.09;;;20.41;99.92
32181;BME280;19172;51.504;3.894;2022-10-16T07:38:50;101192.69;;;20.31;99.46
32181;BME280;19172;51.504;3.894;2022-10-16T07:41:19;101195.63;;;20.51;100.00
32181;BME280;19172;51.504;3.894;2022-10-16T07:43:50;101206.72;;;20.40;99.36
32181;BME280;19172;51.504;3.894;2022-10-16T07:46:19;101206.50;;;20.19;100.00
32181;BME280;19172;51.504;3.894;2022-10-16T07:48:47;101218.75;;;19.98;100.00
32181;BME280;19172;51.504;3.894;2022-10-16T07:51:18;101222.09;;;20.35;100.00
32181;BME280;19172;51.504;3.894;2022-10-16T07:53:47;101220.09;;;20.13;100.00
32181;BME280;19172;51.504;3.894;2022-10-16T07:56:16;101222.78;;;20.13;100.00
32181;BME280;19172;51.504;3.894;2022-10-16T07:58:45;101229.66;;;20.21;100.00
32181;BME280;19172;51.504;3.894;2022-10-16T08:01:15;101232.31;;;19.93;100.00
32181;BME280;19172;51.504;3.894;2022-10-16T08:03:49;101238.50;;;20.25;100.00
32181;BME280;19172;51.504;3.894;2022-10-16T08:06:18;101237.31;;;20.05;100.00
32181;BME280;19172;51.504;3.894;2022-10-16T08:08:48;101245.38;;;20.05;100.00
32181;BME280;19172;51.504;3.894;2022-10-16T08:11:16;101251.00;;;20.27;100.00
32181;BME280;19172;51.504;3.894;2022-10-16T08:13:44;101259.81;;;20.32;100.00
32181;BME280;19172;51.504;3.894;2022-10-16T08:16:12;101263.44;;;20.30;100.00
32181;BME280;19172;51.504;3.894;2022-10-16T08:18:40;101257.66;;;20.43;100.00
32181;BME280;19172;51.504;3.894;2022-10-16T08:21:14;101266.03;;;20.33;100.00
32181;BME280;19172;51.504;3.894;2022-10-16T08:23:45;101267.75;;;20.06;100.00
32181;BME280;19172;51.504;3.894;2022-10-16T08:26:13;101263.16;;;19.79;100.00
32181;BME280;19172;51.504;3.894;2022-10-16T08:28:40;101274.63;;;20.15;100.00
32181;BME280;19172;51.504;3.894;2022-10-16T08:31:14;101267.50;;;20.43;100.00
32181;BME280;19172;51.504;3.894;2022-10-16T08:33:47;101272.94;;;20.41;100.00
32181;BME280;19172;51.504;3.894;2022-10-16T08:36:16;101287.09;;;20.74;100.00
32181;BME280;19172;51.504;3.894;2022-10-16T08:38:47;101284.97;;;20.84;100.00
32181;BME280;19172;51.504;3.894;2022-10-16T08:41:39;101281.03;;;20.95;100.00
32181;BME280;19172;51.504;3.894;2022-10-16T08:49:35;101298.22;;;20.64;100.00
32181;BME280;19172;51.504;3.894;2022-10-16T08:52:10;101293.53;;;20.70;99.23
32181;BME280;19172;51.504;3.894;2022-10-16T08:54:48;101297.78;;;21.03;99.03
32181;BME280;19172;51.504;3.894;2022-10-16T08:57:21;101296.13;;;20.99;99.03
32181;BME280;19172;51.504;3.894;2022-10-16T08:59:55;101305.41;;;21.17;99.46
32181;BME280;19172;51.504;3.894;2022-10-16T09:03:03;101304.28;;;20.96;97.78
32181;BME280;19172;51.504;3.894;2022-10-16T09:06:05;101313.75;;;21.08;98.79
32181;BME280;19172;51.504;3.894;2022-10-16T09:08:56;101303.66;;;21.16;99.61
32181;BME280;19172;51.504;3.894;2022-10-16T09:11:53;101306.44;;;21.39;98.66
32181;BME280;19172;51.504;3.894;2022-10-16T09:23:26;101308.19;;;21.91;90.72
32181;BME280;19172;51.504;3.894;2022-10-16T09:25:56;101311.59;;;22.20;91.20
32181;BME280;19172;51.504;3.894;2022-10-16T09:28:26;101322.66;;;22.12;89.97
32181;BME280;19172;51.504;3.894;2022-10-16T09:30:54;101328.19;;;21.58;90.62
32181;BME280;19172;51.504;3.894;2022-10-16T09:33:29;101322.56;;;21.66;92.25
32181;BME280;19172;51.504;3.894;2022-10-16T09:35:58;101328.59;;;21.72;90.64
32181;BME280;19172;51.504;3.894;2022-10-16T09:38:32;101340.50;;;21.65;89.46
32181;BME280;19172;51.504;3.894;2022-10-16T09:41:03;101336.22;;;21.84;91.90
32181;BME280;19172;51.504;3.894;2022-10-16T09:44:00;101325.09;;;22.18;91.44
32181;BME280;19172;51.504;3.894;2022-10-16T09:48:59;101333.81;;;22.49;89.63
32181;BME280;19172;51.504;3.894;2022-10-16T09:51:36;101341.03;;;22.47;87.88
32181;BME280;19172;51.504;3.894;2022-10-16T09:56:38;101338.63;;;22.63;84.98
32181;BME280;19172;51.504;3.894;2022-10-16T09:59:12;101349.25;;;22.91;84.65
32181;BME280;19172;51.504;3.894;2022-10-16T10:01:51;101350.66;;;22.54;83.41
32181;BME280;19172;51.504;3.894;2022-10-16T10:04:21;101351.59;;;22.30;83.81
32181;BME280;19172;51.504;3.894;2022-10-16T10:06:52;101360.84;;;22.46;85.53
32181;BME280;19172;51.504;3.894;2022-10-16T10:09:37;101354.34;;;22.75;84.11
32181;BME280;19172;51.504;3.894;2022-10-16T10:12:19;101352.22;;;23.27;79.78
32181;BME280;19172;51.504;3.894;2022-10-16T10:14:50;101351.69;;;23.18;78.86
32181;BME280;19172;51.504;3.894;2022-10-16T10:17:22;101350.34;;;23.50;78.03
32181;BME280;19172;51.504;3.894;2022-10-16T10:20:15;101363.13;;;23.24;76.21
32181;BME280;19172;51.504;3.894;2022-10-16T10:22:42;101366.16;;;22.94;75.27
32181;BME280;19172;51.504;3.894;2022-10-16T10:27:56;101370.13;;;23.51;72.17
32181;BME280;19172;51.504;3.894;2022-10-16T10:41:37;101380.16;;;24.48;69.21
32181;BME280;19172;51.504;3.894;2022-10-16T10:52:29;101391.06;;;23.66;63.60
32181;BME280;19172;51.504;3.894;2022-10-16T10:55:16;101398.41;;;22.97;64.02
32181;BME280;19172;51.504;3.894;2022-10-16T10:58:06;101396.03;;;23.55;62.04
32181;BME280;19172;51.504;3.894;2022-10-16T11:01:01;101387.09;;;23.95;61.49
32181;BME280;19172;51.504;3.894;2022-10-16T11:06:31;101396.47;;;23.86;61.80
32181;BME280;19172;51.504;3.894;2022-10-16T11:09:20;101394.13;;;23.99;60.71
32181;BME280;19172;51.504;3.894;2022-10-16T11:12:08;101388.03;;;23.74;59.37
32181;BME280;19172;51.504;3.894;2022-10-16T11:14:49;101390.47;;;23.80;58.65
32181;BME280;19172;51.504;3.894;2022-10-16T11:17:25;101388.69;;;23.37;58.83
32181;BME280;19172;51.504;3.894;2022-10-16T11:20:18;101391.56;;;24.16;58.97
32181;BME280;19172;51.504;3.894;2022-10-16T11:22:52;101390.25;;;23.84;59.11
32181;BME280;19172;51.504;3.894;2022-10-16T11:25:26;101389.44;;;24.43;59.78
32181;BME280;19172;51.504;3.894;2022-10-16T11:28:19;101393.47;;;24.53;59.37
32181;BME280;19172;51.504;3.894;2022-10-16T11:30:54;101393.66;;;24.87;60.08
32181;BME280;19172;51.504;3.894;2022-10-16T11:33:45;101400.69;;;24.91;59.58
32181;BME280;19172;51.504;3.894;2022-10-16T11:47:45;101423.97;;;25.12;59.42
32181;BME280;19172;51.504;3.894;2022-10-16T11:50:31;101423.03;;;25.13;59.03
32181;BME280;19172;51.504;3.894;2022-10-16T11:55:40;101422.75;;;24.82;59.30
32181;BME280;19172;51.504;3.894;2022-10-16T11:58:30;101423.72;;;24.80;59.36
32181;BME280;19172;51.504;3.894;2022-10-16T12:03:35;101419.16;;;24.43;59.78
32181;BME280;19172;51.504;3.894;2022-10-16T12:06:20;101416.38;;;23.63;60.07
32181;BME280;19172;51.504;3.894;2022-10-16T12:08:53;101407.06;;;24.70;61.05
32181;BME280;19172;51.504;3.894;2022-10-16T12:11:34;101408.28;;;24.83;60.20
32181;BME280;19172;51.504;3.894;2022-10-16T12:16:57;101406.28;;;24.29;61.68
32181;BME280;19172;51.504;3.894;2022-10-16T12:19:29;101414.06;;;24.16;62.04
32181;BME280;19172;51.504;3.894;2022-10-16T12:22:00;101405.44;;;24.07;62.56
32181;BME280;19172;51.504;3.894;2022-10-16T12:30:03;101406.28;;;24.29;65.16
32181;BME280;19172;51.504;3.894;2022-10-16T12:32:36;101413.19;;;24.73;63.46
32181;BME280;19172;51.504;3.894;2022-10-16T12:35:26;101422.16;;;24.75;63.25
32181;BME280;19172;51.504;3.894;2022-10-16T12:38:12;101420.75;;;24.28;62.52
32181;BME280;19172;51.504;3.894;2022-10-16T12:40:43;101421.28;;;24.36;63.12
32181;BME280;19172;51.504;3.894;2022-10-16T12:43:36;101417.44;;;24.60;63.53
32181;BME280;19172;51.504;3.894;2022-10-16T12:51:56;101422.13;;;25.50;60.74
32181;BME280;19172;51.504;3.894;2022-10-16T12:54:31;101406.88;;;25.48;60.74
32181;BME280;19172;51.504;3.894;2022-10-16T13:00:18;101414.56;;;25.91;60.84
32181;BME280;19172;51.504;3.894;2022-10-16T13:09:08;101425.97;;;25.63;59.96
32181;BME280;19172;51.504;3.894;2022-10-16T13:17:27;101424.63;;;25.89;60.07
32181;BME280;19172;51.504;3.894;2022-10-16T13:28:06;101408.44;;;26.05;58.58
32181;BME280;19172;51.504;3.894;2022-10-16T13:30:40;101410.94;;;26.09;59.14
32181;BME280;19172;51.504;3.894;2022-10-16T13:35:52;101407.81;;;26.17;58.78
32181;BME280;19172;51.504;3.894;2022-10-16T13:38:25;101414.06;;;26.19;59.25
32181;BME280;19172;51.504;3.894;2022-10-16T13:41:00;101413.06;;;26.37;58.79
32181;BME280;19172;51.504;3.894;2022-10-16T13:43:40;101411.13;;;26.39;58.71
32181;BME280;19172;51.504;3.894;2022-10-16T13:46:17;101409.94;;;26.45;57.74
32181;BME280;19172;51.504;3.894;2022-10-16T13:49:03;101406.19;;;26.47;58.63
32181;BME280;19172;51.504;3.894;2022-10-16T13:51:33;101403.75;;;26.08;58.02
32181;BME280;19172;51.504;3.894;2022-10-16T13:54:01;101403.88;;;26.40;58.29
32181;BME280;19172;51.504;3.894;2022-10-16T13:56:32;101397.09;;;26.48;57.83
32181;BME280;19172;51.504;3.894;2022-10-16T13:59:22;101407.03;;;26.32;57.05
32181;BME280;19172;51.504;3.894;2022-10-16T14:01:53;101410.28;;;26.39;57.17
32181;BME280;19172;51.504;3.894;2022-10-16T14:04:22;101401.47;;;26.51;57.93
32181;BME280;19172;51.504;3.894;2022-10-16T14:06:51;101397.53;;;25.72;57.89
32181;BME280;19172;51.504;3.894;2022-10-16T14:09:26;101404.63;;;26.09;58.66
32181;BME280;19172;51.504;3.894;2022-10-16T14:12:00;101405.72;;;26.05;58.37
32181;BME280;19172;51.504;3.894;2022-10-16T14:14:44;101411.88;;;26.08;58.39
32181;BME280;19172;51.504;3.894;2022-10-16T14:17:22;101408.94;;;26.13;58.87
32181;BME280;19172;51.504;3.894;2022-10-16T14:19:55;101405.34;;;26.12;59.00
32181;BME280;19172;51.504;3.894;2022-10-16T14:25:26;101412.44;;;26.15;59.37
32181;BME280;19172;51.504;3.894;2022-10-16T14:27:58;101403.13;;;26.20;59.63
32181;BME280;19172;51.504;3.894;2022-10-16T14:30:30;101397.28;;;26.28;59.51
32181;BME280;19172;51.504;3.894;2022-10-16T14:32:59;101396.19;;;26.32;59.45
32181;BME280;19172;51.504;3.894;2022-10-16T14:38:00;101389.59;;;26.36;59.09
32181;BME280;19172;51.504;3.894;2022-10-16T14:40:34;101386.66;;;26.41;58.34
32181;BME280;19172;51.504;3.894;2022-10-16T14:43:04;101393.94;;;26.23;58.50
32181;BME280;19172;51.504;3.894;2022-10-16T14:45:34;101399.06;;;26.29;59.31
32181;BME280;19172;51.504;3.894;2022-10-16T14:48:15;101394.47;;;26.29;59.31
32181;BME280;19172;51.504;3.894;2022-10-16T14:50:46;101397.13;;;26.31;60.11
32181;BME280;19172;51.504;3.894;2022-10-16T14:53:14;101396.66;;;25.89;58.92
32181;BME280;19172;51.504;3.894;2022-10-16T14:55:43;101406.94;;;25.99;58.85
32181;BME280;19172;51.504;3.894;2022-10-16T14:58:21;101398.97;;;25.62;58.72
32181;BME280;19172;51.504;3.894;2022-10-16T15:00:49;101405.50;;;25.58;59.83
32181;BME280;19172;51.504;3.894;2022-10-16T15:03:17;101406.88;;;25.48;60.25
32181;BME280;19172;51.504;3.894;2022-10-16T15:05:45;101413.13;;;25.50;60.51
32181;BME280;19172;51.504;3.894;2022-10-16T15:08:12;101413.94;;;25.52;60.48
32181;BME280;19172;51.504;3.894;2022-10-16T15:10:43;101411.09;;;25.36;61.29
32181;BME280;19172;51.504;3.894;2022-10-16T15:13:13;101395.25;;;25.46;61.25
32181;BME280;19172;51.504;3.894;2022-10-16T15:15:44;101403.38;;;25.46;61.96